createdAt,value
2023-02-05T00:00:52.498Z,22.40
2023-02-05T00:03:18.845Z,21.63
2023-02-05T00:05:48.015Z,20.77
2023-02-05T00:08:14.312Z,18.97
2023-02-05T00:10:40.589Z,19.97
2023-02-05T00:13:08.966Z,21.93
2023-02-05T00:15:39.275Z,20.30
2023-02-05T00:18:05.561Z,23.27
2023-02-05T00:20:31.839Z,22.87
2023-02-05T00:22:58.172Z,25.07
2023-02-05T00:25:24.546Z,19.27
2023-02-05T00:27:50.925Z,24.57
2023-02-05T00:30:17.209Z,21.87
2023-02-05T00:32:43.512Z,24.13
2023-02-05T00:35:09.820Z,22.87
2023-02-05T00:37:36.089Z,26.67
2023-02-05T00:40:02.530Z,26.53
2023-02-05T00:42:28.847Z,21.23
2023-02-05T00:44:55.086Z,23.00
2023-02-05T00:47:21.452Z,21.50
2023-02-05T00:49:47.736Z,23.67
2023-02-05T00:52:14.028Z,20.77
2023-02-05T00:54:40.315Z,22.57
2023-02-05T00:57:06.607Z,22.47
2023-02-05T00:59:32.906Z,25.00
2023-02-05T01:01:59.183Z,28.30
2023-02-05T01:04:25.462Z,20.57
2023-02-05T01:06:51.776Z,20.17
2023-02-05T01:09:18.104Z,19.70
2023-02-05T01:11:44.317Z,25.07
2023-02-05T01:14:10.651Z,19.80
2023-02-05T01:16:36.900Z,23.40
2023-02-05T01:19:03.195Z,22.17
2023-02-05T01:21:29.602Z,23.67
2023-02-05T01:23:57.755Z,26.97
2023-02-05T01:26:24.014Z,29.60
2023-02-05T01:28:50.289Z,22.80
2023-02-05T01:31:16.680Z,27.10
2023-02-05T01:33:43.056Z,21.47
2023-02-05T01:36:09.489Z,25.60
2023-02-05T01:38:35.815Z,24.07
2023-02-05T01:41:02.079Z,19.87
2023-02-05T01:43:28.366Z,21.33
2023-02-05T01:46:03.467Z,23.03
2023-02-05T01:48:32.423Z,21.23
2023-02-05T01:51:02.498Z,24.17
2023-02-05T01:53:31.176Z,22.63
2023-02-05T01:55:59.565Z,27.33
2023-02-05T01:58:27.442Z,26.93
2023-02-05T02:00:53.821Z,23.87
2023-02-05T02:03:20.896Z,21.23
2023-02-05T02:05:47.257Z,26.90
2023-02-05T02:08:13.503Z,27.63
2023-02-05T02:10:41.169Z,24.77
2023-02-05T02:13:07.878Z,25.60
2023-02-05T02:15:34.521Z,25.63
2023-02-05T02:18:22.098Z,24.00
2023-02-05T02:20:50.436Z,22.20
2023-02-05T02:23:25.194Z,40.63
2023-02-05T02:26:10.281Z,43.20
2023-02-05T02:28:43.686Z,44.73
2023-02-05T02:31:09.894Z,29.30
2023-02-05T02:33:46.278Z,24.33
2023-02-05T02:36:27.789Z,26.87
2023-02-05T02:38:57.663Z,23.47
2023-02-05T02:41:29.545Z,24.77
2023-02-05T02:44:19.122Z,21.07
2023-02-05T02:46:50.720Z,23.23
2023-02-05T02:49:22.866Z,22.83
2023-02-05T02:51:49.809Z,22.03
2023-02-05T02:54:17.855Z,22.23
2023-02-05T02:56:45.184Z,22.30
2023-02-05T02:59:16.428Z,20.53
2023-02-05T03:01:52.350Z,19.50
2023-02-05T03:04:24.081Z,22.13
2023-02-05T03:06:51.875Z,26.53
2023-02-05T03:09:22.188Z,20.53
2023-02-05T03:11:48.411Z,26.40
2023-02-05T03:14:14.638Z,25.33
2023-02-05T03:16:40.892Z,25.03
2023-02-05T03:19:07.806Z,24.80
2023-02-05T03:21:37.246Z,25.43
2023-02-05T03:24:03.986Z,24.40
2023-02-05T03:26:32.140Z,24.33
2023-02-05T03:29:00.484Z,26.27
2023-02-05T03:31:50.474Z,27.30
2023-02-05T03:34:22.757Z,25.37
2023-02-05T03:36:52.165Z,22.40
2023-02-05T03:39:29.224Z,28.23
2023-02-05T03:42:18.529Z,25.40
2023-02-05T03:44:47.805Z,26.17
2023-02-05T03:47:37.472Z,28.60
2023-02-05T03:50:03.804Z,25.83
2023-02-05T03:52:35.705Z,24.97
2023-02-05T03:55:14.008Z,22.57
2023-02-05T03:57:50.613Z,22.37
2023-02-05T04:00:17.076Z,25.23
2023-02-05T04:02:43.429Z,24.80
2023-02-05T04:05:09.687Z,27.17
2023-02-05T04:07:54.786Z,26.87
2023-02-05T04:10:21.101Z,25.00
2023-02-05T04:12:47.399Z,25.43
2023-02-05T04:15:13.710Z,25.93
2023-02-05T04:17:39.975Z,27.03
2023-02-05T04:20:06.480Z,25.47
2023-02-05T04:22:32.969Z,25.37
2023-02-05T04:24:59.244Z,23.83
2023-02-05T04:27:25.499Z,30.00
2023-02-05T04:29:51.825Z,24.73
2023-02-05T04:32:18.124Z,23.93
2023-02-05T04:34:44.432Z,28.43
2023-02-05T04:37:10.716Z,27.93
2023-02-05T04:39:37.091Z,24.07
2023-02-05T04:42:03.489Z,27.13
2023-02-05T04:44:29.780Z,27.17
2023-02-05T04:46:56.036Z,27.47
2023-02-05T04:49:22.321Z,26.77
2023-02-05T04:51:48.562Z,34.77
2023-02-05T04:54:14.847Z,32.80
2023-02-05T04:56:41.113Z,31.27
2023-02-05T04:59:07.501Z,32.97
2023-02-05T05:01:33.925Z,33.00
2023-02-05T05:04:00.238Z,36.80
2023-02-05T05:06:26.504Z,38.17
2023-02-05T05:08:53.729Z,40.67
2023-02-05T05:11:20.025Z,39.43
2023-02-05T05:13:46.526Z,36.57
2023-02-05T05:16:12.873Z,40.87
2023-02-05T05:18:39.780Z,42.27
2023-02-05T05:21:06.063Z,46.70
2023-02-05T05:23:32.511Z,38.80
2023-02-05T05:25:58.760Z,38.93
2023-02-05T05:28:25.123Z,35.97
2023-02-05T05:30:51.415Z,33.50
2023-02-05T05:33:17.674Z,33.57
2023-02-05T05:35:45.211Z,36.13
2023-02-05T05:38:12.352Z,33.63
2023-02-05T05:40:57.868Z,35.40
2023-02-05T05:43:42.913Z,29.67
2023-02-05T05:46:09.259Z,32.63
2023-02-05T05:48:35.607Z,31.60
2023-02-05T05:51:01.847Z,31.73
2023-02-05T05:53:28.100Z,29.30
2023-02-05T05:55:54.424Z,33.33
2023-02-05T05:58:20.646Z,31.07
2023-02-05T06:00:46.913Z,28.73
2023-02-05T06:03:13.201Z,29.37
2023-02-05T06:05:39.529Z,32.67
2023-02-05T06:08:06.168Z,26.30
2023-02-05T06:10:35.233Z,26.40
2023-02-05T06:13:01.609Z,54.03
2023-02-05T06:15:28.001Z,29.03
2023-02-05T06:17:54.212Z,28.10
2023-02-05T06:20:20.726Z,22.73
2023-02-05T06:22:47.019Z,29.80
2023-02-05T06:25:13.354Z,28.83
2023-02-05T06:27:39.678Z,29.17
2023-02-05T06:30:06.174Z,30.17
2023-02-05T06:32:32.451Z,32.93
2023-02-05T06:34:58.710Z,28.43
2023-02-05T06:37:46.244Z,35.03
2023-02-05T06:40:15.558Z,41.17
2023-02-05T06:42:42.147Z,43.33
2023-02-05T06:45:10.059Z,42.47
2023-02-05T06:47:36.615Z,44.90
2023-02-05T06:50:03.046Z,44.10
2023-02-05T06:52:29.296Z,39.50
2023-02-05T06:54:55.529Z,39.87
2023-02-05T06:57:21.904Z,38.93
2023-02-05T06:59:48.170Z,38.57
2023-02-05T07:02:14.594Z,36.13
2023-02-05T07:04:40.862Z,39.93
2023-02-05T07:07:07.110Z,38.40
2023-02-05T07:09:33.535Z,40.13
2023-02-05T07:11:59.795Z,39.63
2023-02-05T07:14:26.072Z,37.17
2023-02-05T07:16:52.375Z,36.50
2023-02-05T07:19:18.671Z,37.37
2023-02-05T07:21:45.098Z,35.33
2023-02-05T07:24:11.415Z,40.03
2023-02-05T07:26:38.593Z,40.10
2023-02-05T07:29:04.857Z,42.57
2023-02-05T07:31:50.676Z,38.37
2023-02-05T07:34:16.993Z,39.43
2023-02-05T07:36:43.274Z,39.10
2023-02-05T07:39:09.598Z,37.93
2023-02-05T07:41:35.857Z,38.70
2023-02-05T07:44:02.175Z,41.30
2023-02-05T07:46:28.498Z,41.70
2023-02-05T07:48:55.010Z,37.97
2023-02-05T07:51:23.097Z,39.87
2023-02-05T07:53:49.479Z,41.03
2023-02-05T07:56:16.192Z,38.33
2023-02-05T07:58:42.971Z,89.10
2023-02-05T08:01:09.272Z,36.70
2023-02-05T08:03:35.690Z,38.17
2023-02-05T08:06:05.732Z,39.00
2023-02-05T08:08:32.092Z,33.47
2023-02-05T08:11:00.629Z,39.80
2023-02-05T08:13:26.903Z,37.80
2023-02-05T08:15:53.303Z,40.67
2023-02-05T08:18:28.348Z,37.50
2023-02-05T08:20:54.983Z,35.63
2023-02-05T08:23:21.933Z,36.17
2023-02-05T08:25:48.580Z,37.13
2023-02-05T08:28:14.895Z,36.83
2023-02-05T08:30:41.381Z,45.03
2023-02-05T08:33:07.728Z,33.43
2023-02-05T08:35:34.252Z,41.97
2023-02-05T08:38:00.678Z,32.93
2023-02-05T08:40:27.633Z,35.27
2023-02-05T08:42:57.053Z,31.07
2023-02-05T08:45:23.952Z,33.17
2023-02-05T08:47:50.546Z,31.03
2023-02-05T08:50:16.825Z,32.07
2023-02-05T08:52:43.088Z,29.30
2023-02-05T08:55:09.427Z,25.70
2023-02-05T08:57:35.689Z,20.23
2023-02-05T09:00:01.976Z,18.50
2023-02-05T09:02:31.118Z,20.60
2023-02-05T09:05:07.932Z,15.30
2023-02-05T09:07:35.019Z,14.73
2023-02-05T09:10:01.475Z,11.47
2023-02-05T09:12:27.775Z,6.03
2023-02-05T09:14:54.052Z,6.10
2023-02-05T09:17:20.392Z,5.57
2023-02-05T09:19:46.610Z,4.22
2023-02-05T09:22:12.920Z,3.57
2023-02-05T09:24:39.281Z,4.77
2023-02-05T09:27:06.682Z,3.87
2023-02-05T09:29:33.101Z,4.40
2023-02-05T09:31:59.396Z,3.33
2023-02-05T09:34:25.833Z,4.90
2023-02-05T09:36:52.067Z,4.50
2023-02-05T09:39:46.984Z,4.53
2023-02-05T09:42:10.682Z,3.60
2023-02-05T09:44:52.070Z,4.50
2023-02-05T09:47:27.753Z,4.10
2023-02-05T09:50:14.300Z,6.43
2023-02-05T09:52:44.840Z,6.83
2023-02-05T09:55:28.933Z,6.10
2023-02-05T09:57:58.384Z,4.20
2023-02-05T10:00:33.037Z,2.13
2023-02-05T10:02:59.272Z,2.70
2023-02-05T10:05:26.268Z,2.70
2023-02-05T10:08:05.425Z,12.00
2023-02-05T10:10:36.372Z,4.03
2023-02-05T10:13:21.393Z,5.93
2023-02-05T10:16:06.595Z,4.97
2023-02-05T10:18:42.265Z,3.67
2023-02-05T10:21:11.584Z,4.50
2023-02-05T10:23:43.813Z,5.43
2023-02-05T10:26:11.945Z,7.57
2023-02-05T10:28:49.896Z,5.53
2023-02-05T10:31:36.943Z,5.57
2023-02-05T10:34:21.924Z,3.93
2023-02-05T10:36:52.784Z,4.50
2023-02-05T10:39:20.661Z,8.30
2023-02-05T10:42:01.560Z,4.50
2023-02-05T10:44:39.852Z,5.87
2023-02-05T10:47:40.085Z,9.40
2023-02-05T10:50:13.987Z,6.20
2023-02-05T10:52:40.337Z,8.83
2023-02-05T10:55:06.691Z,6.37
2023-02-05T10:57:34.116Z,8.20
2023-02-05T11:00:02.971Z,5.03
2023-02-05T11:02:32.857Z,8.73
2023-02-05T11:05:03.099Z,5.03
2023-02-05T11:07:35.207Z,26.07
2023-02-05T11:10:22.198Z,9.33
2023-02-05T11:12:49.574Z,6.60
2023-02-05T11:15:20.726Z,6.73
2023-02-05T11:17:51.250Z,6.13
2023-02-05T11:20:17.451Z,4.93
2023-02-05T11:23:19.152Z,8.17
2023-02-05T11:25:49.367Z,8.10
2023-02-05T11:28:20.275Z,10.23
2023-02-05T11:30:51.345Z,7.27
2023-02-05T11:33:22.864Z,9.23
2023-02-05T11:36:00.092Z,7.93
2023-02-05T11:38:45.768Z,5.43
2023-02-05T11:41:14.037Z,9.20
2023-02-05T11:43:45.958Z,10.53
2023-02-05T11:46:15.339Z,12.07
2023-02-05T11:48:43.775Z,12.00
2023-02-05T11:51:15.212Z,11.00
2023-02-05T11:53:53.972Z,11.37
2023-02-05T11:56:25.109Z,29.47
2023-02-05T11:59:05.389Z,10.53
2023-02-05T12:01:34.026Z,14.30
2023-02-05T12:04:00.424Z,12.97
2023-02-05T12:06:38.311Z,12.53
2023-02-05T12:09:05.438Z,10.33
2023-02-05T12:11:31.681Z,12.50
2023-02-05T12:14:16.051Z,13.00
2023-02-05T12:16:48.065Z,7.80
2023-02-05T12:19:17.370Z,11.13
2023-02-05T12:22:03.862Z,19.57
2023-02-05T12:24:39.339Z,15.90
2023-02-05T12:27:12.695Z,11.00
2023-02-05T12:29:48.103Z,13.20
2023-02-05T12:32:37.711Z,16.60
2023-02-05T12:35:20.110Z,20.73
2023-02-05T12:38:05.130Z,17.70
2023-02-05T12:40:40.773Z,13.80
2023-02-05T12:43:14.937Z,18.83
2023-02-05T12:45:48.666Z,13.20
2023-02-05T12:48:30.854Z,22.97
2023-02-05T12:50:57.084Z,35.67
2023-02-05T12:53:31.233Z,33.53
2023-02-05T12:56:00.499Z,11.80
2023-02-05T12:58:32.641Z,12.80
2023-02-05T13:01:03.088Z,14.20
2023-02-05T13:03:33.889Z,11.83
2023-02-05T13:06:18.976Z,16.47
2023-02-05T13:08:52.938Z,16.53
2023-02-05T13:11:25.200Z,17.30
2023-02-05T13:13:58.260Z,13.53
2023-02-05T13:16:30.717Z,15.93
2023-02-05T13:19:14.826Z,11.17
2023-02-05T13:21:59.913Z,11.37
2023-02-05T13:25:00.161Z,12.80
2023-02-05T13:27:47.020Z,10.50
2023-02-05T13:30:19.279Z,12.67
2023-02-05T13:32:53.296Z,9.63
2023-02-05T13:35:22.112Z,10.13
2023-02-05T13:38:01.515Z,9.33
2023-02-05T13:40:34.153Z,6.10
2023-02-05T13:43:07.190Z,9.43
2023-02-05T13:45:52.337Z,9.13
2023-02-05T13:48:37.997Z,8.43
2023-02-05T13:51:23.102Z,14.60
2023-02-05T13:53:49.319Z,8.40
2023-02-05T13:56:36.919Z,8.70
2023-02-05T13:59:23.948Z,9.97
2023-02-05T14:01:53.498Z,7.00
2023-02-05T14:04:20.082Z,7.10
2023-02-05T14:06:57.615Z,11.60
2023-02-05T14:09:30.038Z,10.97
2023-02-05T14:11:57.687Z,7.53
2023-02-05T14:14:23.927Z,9.37
2023-02-05T14:16:51.895Z,5.47
2023-02-05T14:19:22.131Z,9.93
2023-02-05T14:21:49.784Z,6.80
2023-02-05T14:24:25.009Z,5.60
2023-02-05T14:27:00.471Z,6.57
2023-02-05T14:29:43.455Z,4.97
2023-02-05T14:32:10.993Z,4.13
2023-02-05T14:34:37.251Z,4.47
2023-02-05T14:37:03.838Z,10.77
2023-02-05T14:39:49.105Z,4.27
2023-02-05T14:42:34.158Z,6.30
2023-02-05T14:45:00.692Z,8.43
2023-02-05T14:47:28.658Z,4.63
2023-02-05T14:50:06.860Z,4.70
2023-02-05T14:52:35.606Z,4.60
2023-02-05T14:55:04.610Z,7.03
2023-02-05T14:57:46.380Z,7.30
2023-02-05T15:00:31.518Z,7.00
2023-02-05T15:03:16.809Z,11.23
2023-02-05T15:06:13.863Z,8.57
2023-02-05T15:09:04.160Z,4.97
2023-02-05T15:11:44.695Z,8.90
2023-02-05T15:14:33.068Z,4.20
2023-02-05T15:17:05.498Z,7.40
2023-02-05T15:19:40.025Z,9.47
2023-02-05T15:22:09.203Z,8.10
2023-02-05T15:24:35.858Z,5.47
2023-02-05T15:27:05.800Z,7.07
2023-02-05T15:29:57.176Z,4.57
2023-02-05T15:32:32.416Z,11.93
2023-02-05T15:35:02.604Z,4.93
2023-02-05T15:37:31.387Z,6.40
2023-02-05T15:40:10.112Z,9.33
2023-02-05T15:42:38.249Z,5.47
2023-02-05T15:45:24.838Z,7.47
2023-02-05T15:48:09.180Z,5.50
2023-02-05T15:50:37.410Z,7.90
2023-02-05T15:53:04.734Z,4.07
2023-02-05T15:55:31.076Z,4.33
2023-02-05T15:58:05.687Z,7.40
2023-02-05T16:00:33.473Z,8.03
2023-02-05T16:03:00.758Z,4.77
2023-02-05T16:05:28.296Z,6.80
2023-02-05T16:07:58.965Z,7.77
2023-02-05T16:10:27.378Z,8.03
2023-02-05T16:13:06.335Z,8.07
2023-02-05T16:15:40.329Z,6.93
2023-02-05T16:18:11.122Z,6.27
2023-02-05T16:20:40.151Z,7.07
2023-02-05T16:23:16.022Z,9.13
2023-02-05T16:25:42.290Z,9.63
2023-02-05T16:28:16.239Z,12.33
2023-02-05T16:30:43.645Z,8.27
2023-02-05T16:33:26.373Z,10.03
2023-02-05T16:36:16.569Z,8.47
2023-02-05T16:38:42.964Z,8.40
2023-02-05T16:41:20.630Z,9.30
2023-02-05T16:43:47.076Z,9.63
2023-02-05T16:46:14.525Z,9.80
2023-02-05T16:48:46.861Z,9.23
2023-02-05T16:51:32.535Z,26.70
2023-02-05T16:54:02.038Z,9.67
2023-02-05T16:56:32.604Z,8.50
2023-02-05T16:59:25.913Z,11.37
2023-02-05T17:01:52.991Z,13.97
2023-02-05T17:04:36.908Z,12.10
2023-02-05T17:07:04.536Z,8.67
2023-02-05T17:09:37.931Z,15.73
2023-02-05T17:12:22.407Z,8.97
2023-02-05T17:14:56.156Z,12.73
2023-02-05T17:17:23.047Z,13.90
2023-02-05T17:20:04.858Z,10.40
2023-02-05T17:22:31.960Z,12.63
2023-02-05T17:24:58.242Z,15.40
2023-02-05T17:27:29.442Z,19.23
2023-02-05T17:29:56.130Z,15.73
2023-02-05T17:32:22.814Z,12.93
2023-02-05T17:34:49.239Z,12.87
2023-02-05T17:37:15.576Z,16.77
2023-02-05T17:39:42.449Z,17.70
2023-02-05T17:42:22.049Z,15.60
2023-02-05T17:44:48.551Z,13.80
2023-02-05T17:47:15.186Z,15.20
2023-02-05T17:49:41.994Z,18.87
2023-02-05T17:52:08.582Z,16.87
2023-02-05T17:54:34.990Z,16.90
2023-02-05T17:57:23.283Z,14.40
2023-02-05T17:59:49.697Z,12.10
2023-02-05T18:02:17.533Z,21.53
2023-02-05T18:04:46.990Z,15.30
2023-02-05T18:07:28.194Z,14.00
2023-02-05T18:09:54.754Z,15.33
2023-02-05T18:12:21.608Z,20.60
2023-02-05T18:14:47.963Z,16.50
2023-02-05T18:17:14.310Z,15.27
2023-02-05T18:19:40.650Z,16.77
2023-02-05T18:22:07.790Z,23.20
2023-02-05T18:24:37.173Z,22.73
2023-02-05T18:27:04.347Z,16.73
2023-02-05T18:29:30.655Z,11.73
2023-02-05T18:31:57.116Z,16.77
2023-02-05T18:34:26.683Z,17.07
2023-02-05T18:36:53.108Z,18.80
2023-02-05T18:39:22.247Z,16.30
2023-02-05T18:41:50.065Z,8.97
2023-02-05T18:44:16.399Z,18.60
2023-02-05T18:46:43.026Z,18.13
2023-02-05T18:49:09.318Z,17.37
2023-02-05T18:51:35.867Z,16.87
2023-02-05T18:54:02.256Z,18.60
2023-02-05T18:56:29.719Z,16.97
2023-02-05T18:58:59.611Z,16.43
2023-02-05T19:01:25.978Z,18.93
2023-02-05T19:04:02.055Z,18.33
2023-02-05T19:06:28.533Z,19.07
2023-02-05T19:08:55.944Z,15.83
2023-02-05T19:11:24.097Z,13.47
2023-02-05T19:14:02.475Z,13.93
2023-02-05T19:16:31.115Z,15.47
2023-02-05T19:18:57.780Z,12.70
2023-02-05T19:21:24.729Z,17.80
2023-02-05T19:23:52.381Z,18.13
2023-02-05T19:26:20.117Z,20.13
2023-02-05T19:28:51.216Z,15.50
2023-02-05T19:31:17.711Z,15.57
2023-02-05T19:33:45.437Z,21.00
2023-02-05T19:36:11.728Z,19.03
2023-02-05T19:38:38.951Z,18.53
2023-02-05T19:41:07.914Z,20.07
2023-02-05T19:43:34.247Z,21.87
2023-02-05T19:46:04.559Z,18.27
2023-02-05T19:48:31.220Z,25.67
2023-02-05T19:51:02.840Z,14.20
2023-02-05T19:53:29.068Z,14.67
2023-02-05T19:56:10.233Z,18.37
2023-02-05T19:58:37.538Z,18.97
2023-02-05T20:01:19.112Z,16.80
2023-02-05T20:03:45.797Z,15.63
2023-02-05T20:06:13.531Z,18.03
2023-02-05T20:08:39.872Z,21.37
2023-02-05T20:11:06.303Z,20.00
2023-02-05T20:13:33.634Z,17.90
2023-02-05T20:16:04.071Z,20.33
2023-02-05T20:18:30.622Z,20.90
2023-02-05T20:20:56.944Z,19.87
2023-02-05T20:23:25.432Z,18.70
2023-02-05T20:25:52.319Z,18.00
2023-02-05T20:28:18.607Z,14.07
2023-02-05T20:31:03.919Z,21.10
2023-02-05T20:33:30.318Z,20.10
2023-02-05T20:35:56.649Z,17.93
2023-02-05T20:38:22.910Z,19.63
2023-02-05T20:40:49.151Z,20.73
2023-02-05T20:43:15.426Z,20.17
2023-02-05T20:45:41.991Z,22.20
2023-02-05T20:48:08.449Z,22.57
2023-02-05T20:50:34.984Z,17.43
2023-02-05T20:53:01.358Z,21.77
2023-02-05T20:55:27.650Z,21.73
2023-02-05T20:57:53.950Z,16.87
2023-02-05T21:00:20.991Z,20.43
2023-02-05T21:02:47.311Z,21.03
2023-02-05T21:05:13.584Z,17.40
2023-02-05T21:07:39.905Z,19.07
2023-02-05T21:10:06.456Z,22.50
2023-02-05T21:12:32.794Z,21.00
2023-02-05T21:14:59.060Z,14.33
2023-02-05T21:17:25.321Z,25.57
2023-02-05T21:19:51.568Z,17.07
2023-02-05T21:22:17.900Z,18.03
2023-02-05T21:24:44.246Z,13.90
2023-02-05T21:27:10.537Z,20.40
2023-02-05T21:29:39.499Z,21.07
2023-02-05T21:32:05.835Z,20.60
2023-02-05T21:34:32.106Z,18.97
2023-02-05T21:36:58.332Z,19.27
2023-02-05T21:39:25.404Z,25.33
2023-02-05T21:41:53.159Z,16.13
2023-02-05T21:44:19.571Z,20.00
2023-02-05T21:46:45.865Z,16.97
2023-02-05T21:49:12.204Z,20.23
2023-02-05T21:51:39.748Z,15.30
2023-02-05T21:54:06.841Z,24.40
2023-02-05T21:56:37.748Z,19.73
2023-02-05T21:59:04.134Z,24.03
2023-02-05T22:01:31.713Z,19.37
2023-02-05T22:03:59.636Z,19.57
2023-02-05T22:06:26.865Z,23.47
2023-02-05T22:08:53.351Z,24.00
2023-02-05T22:11:21.254Z,24.13
2023-02-05T22:13:48.608Z,21.60
2023-02-05T22:16:17.045Z,20.60
2023-02-05T22:18:43.586Z,20.97
2023-02-05T22:21:12.043Z,18.13
2023-02-05T22:23:58.530Z,23.43
2023-02-05T22:26:26.964Z,25.37
2023-02-05T22:28:53.405Z,21.13
2023-02-05T22:31:20.729Z,18.27
2023-02-05T22:33:48.215Z,23.07
2023-02-05T22:36:15.305Z,20.67
2023-02-05T22:38:42.268Z,20.90
2023-02-05T22:41:13.098Z,19.63
2023-02-05T22:43:39.783Z,18.37
2023-02-05T22:46:10.461Z,18.87
2023-02-05T22:48:38.010Z,27.77
2023-02-05T22:51:05.416Z,17.13
2023-02-05T22:53:31.809Z,15.70
2023-02-05T22:56:05.852Z,18.17
2023-02-05T22:58:32.131Z,25.57
2023-02-05T23:00:58.897Z,18.60
2023-02-05T23:03:43.740Z,21.70
2023-02-05T23:06:17.305Z,22.33
2023-02-05T23:08:43.949Z,16.07
2023-02-05T23:11:12.758Z,21.83
2023-02-05T23:13:40.022Z,21.00
2023-02-05T23:16:07.267Z,18.27
2023-02-05T23:18:33.794Z,16.83
2023-02-05T23:21:00.104Z,12.73
2023-02-05T23:23:26.430Z,13.30
2023-02-05T23:25:54.982Z,21.50
2023-02-05T23:28:24.629Z,20.37
2023-02-05T23:30:51.061Z,17.87
2023-02-05T23:33:17.401Z,21.87
2023-02-05T23:35:43.810Z,22.27
2023-02-05T23:38:10.122Z,20.93
2023-02-05T23:40:36.422Z,23.80
2023-02-05T23:43:02.737Z,22.63
2023-02-05T23:45:30.672Z,17.03
2023-02-05T23:47:56.969Z,22.73
2023-02-05T23:50:23.256Z,22.57
2023-02-05T23:52:49.601Z,25.77
2023-02-05T23:55:15.912Z,19.13
2023-02-05T23:57:42.180Z,24.90
